Time;durP1;ratioP1;P1;durP2;ratioP2;P2;SDS_P1;SDS_P2;PMS_P1;PMS_P2;Temp;Humidity;BMP_temperature;BMP_pressure;BME280_temperature;BME280_humidity;BME280_pressure;Samples;Min_cycle;Max_cycle;Signal;HPM_P1;HPM_P2
2024/03/20 00:00:29;;;;;;;;;;;;;;;24.50;34.60;101358.00;4099954;29;19926;-58
2024/03/20 00:02:30;;;;;;;;;;;;;;;24.51;34.80;101357.03;4099811;29;19926;-59
2024/03/20 00:04:31;;;;;;;;;;;;;;;24.51;34.93;101364.22;4100001;29;19957;-58
2024/03/20 00:06:33;;;;;;;;;;;;;;;24.50;34.73;101363.38;4099657;29;20302;-59
2024/03/20 00:08:35;;;;;;;;;;;;;;;24.48;34.73;101367.19;4099838;29;19923;-58
2024/03/20 00:10:36;;;;;;;;;;;;;;;24.46;34.71;101367.31;4099673;29;19926;-58
2024/03/20 00:12:36;;;;;;;;;;;;;;;24.46;34.67;101367.31;4099967;29;19951;-58
2024/03/20 00:14:37;;;;;;;;;;;;;;;24.46;34.93;101367.31;4099849;29;20386;-58
2024/03/20 00:16:38;;;;;;;;;;;;;;;24.45;34.94;101368.31;4099525;29;19929;-62
2024/03/20 00:18:39;;;;;;;;;;;;;;;24.45;34.88;101371.00;4099950;29;19978;-59
2024/03/20 00:20:42;;;;;;;;;;;;;;;24.46;34.63;101371.84;4099605;29;20310;-58
2024/03/20 00:22:43;;;;;;;;;;;;;;;24.44;34.66;101363.91;4099229;28;20371;-58
2024/03/20 00:24:44;;;;;;;;;;;;;;;24.47;34.68;101362.78;4099754;29;19973;-58
2024/03/20 00:26:46;;;;;;;;;;;;;;;24.46;34.86;101353.88;4099354;29;20367;-59
2024/03/20 00:28:47;;;;;;;;;;;;;;;24.46;34.68;101351.19;4099397;29;19922;-58
2024/03/20 00:30:48;;;;;;;;;;;;;;;24.49;34.93;101355.44;4106975;28;19926;-58
2024/03/20 00:32:48;;;;;;;;;;;;;;;24.48;34.76;101348.38;4101077;28;19922;-57
2024/03/20 00:34:49;;;;;;;;;;;;;;;24.45;34.87;101351.31;4099300;29;20018;-58
2024/03/20 00:36:50;;;;;;;;;;;;;;;24.45;34.76;101345.91;4099600;29;19969;-58
2024/03/20 00:38:51;;;;;;;;;;;;;;;24.44;34.90;101347.78;4099233;29;20436;-58
2024/03/20 00:40:52;;;;;;;;;;;;;;;24.43;34.70;101348.75;4083124;29;19930;-59
2024/03/20 00:42:53;;;;;;;;;;;;;;;24.41;34.67;101356.09;4099426;29;19966;-58
2024/03/20 00:44:54;;;;;;;;;;;;;;;24.40;34.87;101360.63;4099476;29;20406;-57
2024/03/20 00:46:54;;;;;;;;;;;;;;;24.38;34.56;101359.06;4099370;29;20427;-59
2024/03/20 00:48:55;;;;;;;;;;;;;;;24.39;34.63;101361.59;4083376;29;19966;-59
2024/03/20 00:50:56;;;;;;;;;;;;;;;24.39;34.77;101363.44;4098943;29;19922;-59
2024/03/20 00:52:57;;;;;;;;;;;;;;;24.41;34.57;101350.72;4099048;29;19932;-58
2024/03/20 00:54:57;;;;;;;;;;;;;;;24.42;34.61;101356.97;4098831;29;20380;-59
2024/03/20 00:56:58;;;;;;;;;;;;;;;24.43;34.76;101348.75;4099222;29;19985;-59
2024/03/20 00:58:59;;;;;;;;;;;;;;;24.42;34.88;101346.19;4099008;29;19922;-59
2024/03/20 01:01:00;;;;;;;;;;;;;;;24.44;35.02;101344.25;4099311;29;19922;-58
2024/03/20 01:03:01;;;;;;;;;;;;;;;24.44;34.92;101344.25;4083228;29;19983;-58
2024/03/20 01:05:01;;;;;;;;;;;;;;;24.42;34.91;101347.03;4099006;29;19995;-59
2024/03/20 01:07:02;;;;;;;;;;;;;;;24.39;34.72;101350.00;4098996;29;19922;-59
2024/03/20 01:09:05;;;;;;;;;;;;;;;24.39;34.85;101347.31;4098704;29;19929;-59
2024/03/20 01:11:06;;;;;;;;;;;;;;;24.39;34.79;101347.31;4098738;29;19926;-59
2024/03/20 01:13:07;;;;;;;;;;;;;;;24.39;34.67;101347.31;4099056;29;19985;-59
2024/03/20 01:15:08;;;;;;;;;;;;;;;24.38;34.74;101349.13;4099090;29;19922;-59
2024/03/20 01:17:12;;;;;;;;;;;;;;;24.37;34.96;101344.72;4098786;29;19926;-59
2024/03/20 01:19:14;;;;;;;;;;;;;;;24.36;34.78;101345.75;4098917;29;19929;-58
2024/03/20 01:21:15;;;;;;;;;;;;;;;24.35;35.05;101343.16;4098778;29;20497;-59
2024/03/20 01:23:16;;;;;;;;;;;;;;;24.35;35.08;101345.84;4098564;29;19930;-59
2024/03/20 01:25:18;;;;;;;;;;;;;;;24.36;34.62;101347.56;4098715;29;19997;-59
2024/03/20 01:27:19;;;;;;;;;;;;;;;24.36;34.86;101343.06;4083010;29;20333;-59
2024/03/20 01:29:20;;;;;;;;;;;;;;;24.38;34.98;101340.22;4098863;29;19977;-59
2024/03/20 01:31:20;;;;;;;;;;;;;;;24.40;34.57;101339.13;4107925;28;19951;-59
2024/03/20 01:33:22;;;;;;;;;;;;;;;24.39;34.86;101344.63;4097905;28;20599;-58
2024/03/20 01:35:22;;;;;;;;;;;;;;;24.39;34.67;101345.47;4082651;29;20329;-58
2024/03/20 01:37:23;;;;;;;;;;;;;;;24.38;34.96;101343.75;4098513;29;19926;-59
2024/03/20 01:39:24;;;;;;;;;;;;;;;24.35;34.79;101335.97;4098061;29;19926;-58
2024/03/20 01:41:25;;;;;;;;;;;;;;;24.35;34.78;101338.66;4098710;29;20318;-58
2024/03/20 01:43:26;;;;;;;;;;;;;;;24.34;34.92;101345.00;4098345;29;19929;-58
2024/03/20 01:45:27;;;;;;;;;;;;;;;24.31;34.81;101342.56;4098599;29;20409;-58
2024/03/20 01:47:27;;;;;;;;;;;;;;;24.32;35.00;101344.28;4098354;29;19999;-58
2024/03/20 01:49:29;;;;;;;;;;;;;;;24.33;35.04;101342.47;4098667;29;19922;-58
2024/03/20 01:51:30;;;;;;;;;;;;;;;24.31;35.07;101345.25;4098415;29;20419;-58
2024/03/20 01:53:31;;;;;;;;;;;;;;;24.32;34.77;101349.66;4097745;29;19929;-59
2024/03/20 01:55:34;;;;;;;;;;;;;;;24.33;34.92;101346.00;4098464;29;20001;-59
2024/03/20 01:57:35;;;;;;;;;;;;;;;24.35;34.58;101346.72;4098394;29;20251;-59
2024/03/20 01:59:36;;;;;;;;;;;;;;;24.36;34.88;101344.88;4098341;29;19966;-59
2024/03/20 02:01:37;;;;;;;;;;;;;;;24.36;34.97;101345.75;4098323;29;19922;-59
2024/03/20 02:03:38;;;;;;;;;;;;;;;24.37;34.73;101350.09;4098234;29;19968;-59
2024/03/20 02:05:39;;;;;;;;;;;;;;;24.37;34.78;101350.09;4098398;29;20048;-59
2024/03/20 02:07:39;;;;;;;;;;;;;;;24.35;34.74;101352.09;4097793;29;19923;-59
2024/03/20 02:09:40;;;;;;;;;;;;;;;24.33;34.86;101354.06;4098158;29;20386;-59
2024/03/20 02:11:41;;;;;;;;;;;;;;;24.32;34.89;101343.44;4098087;29;19922;-59
2024/03/20 02:13:44;;;;;;;;;;;;;;;24.31;35.01;101337.19;4098110;29;19923;-59
2024/03/20 02:15:45;;;;;;;;;;;;;;;24.28;34.88;101342.84;4098225;29;20085;-60
2024/03/20 02:17:46;;;;;;;;;;;;;;;24.28;34.99;101348.22;4098222;29;19926;-59
2024/03/20 02:19:47;;;;;;;;;;;;;;;24.26;34.97;101342.09;4098091;29;19929;-59
2024/03/20 02:21:48;;;;;;;;;;;;;;;24.26;34.81;101341.28;4097751;29;19922;-59
2024/03/20 02:23:49;;;;;;;;;;;;;;;24.26;34.99;101343.97;4098278;29;20325;-59
2024/03/20 02:25:50;;;;;;;;;;;;;;;24.27;34.93;101348.34;4098191;29;19922;-60
2024/03/20 02:27:51;;;;;;;;;;;;;;;24.29;35.01;101347.25;4098086;29;19930;-59
2024/03/20 02:29:51;;;;;;;;;;;;;;;24.28;34.87;101342.84;4098296;29;19922;-59
2024/03/20 02:31:52;;;;;;;;;;;;;;;24.29;34.75;101343.69;4088575;29;19973;-59
2024/03/20 02:33:54;;;;;;;;;;;;;;;24.32;34.97;101346.97;4097802;29;19956;-60
2024/03/20 02:35:55;;;;;;;;;;;;;;;24.32;34.94;101340.75;4097904;29;19922;-60
2024/03/20 02:37:56;;;;;;;;;;;;;;;24.30;35.04;101345.41;4098224;29;19926;-60
2024/03/20 02:39:57;;;;;;;;;;;;;;;24.29;35.01;101354.44;4098000;29;19926;-59
2024/03/20 02:41:57;;;;;;;;;;;;;;;24.25;35.14;101348.47;4098023;29;19923;-59
2024/03/20 02:43:58;;;;;;;;;;;;;;;24.24;34.84;101344.06;4098023;29;19980;-59
2024/03/20 02:45:59;;;;;;;;;;;;;;;24.22;34.84;101349.56;4100425;28;19929;-59
2024/03/20 02:48:00;;;;;;;;;;;;;;;24.22;35.09;101352.25;4101353;29;19923;-59
2024/03/20 02:50:01;;;;;;;;;;;;;;;24.23;35.07;101353.13;4101030;29;19942;-63
2024/03/20 02:52:02;;;;;;;;;;;;;;;24.22;34.86;101354.94;4100740;29;20440;-59
2024/03/20 02:54:02;;;;;;;;;;;;;;;24.20;35.06;101348.00;4100990;29;19928;-59
2024/03/20 02:56:04;;;;;;;;;;;;;;;24.21;34.99;101339.81;4100979;29;19926;-59
2024/03/20 02:58:04;;;;;;;;;;;;;;;24.22;35.10;101335.31;4100964;29;19997;-59
2024/03/20 03:00:05;;;;;;;;;;;;;;;24.23;34.91;101343.22;4100924;29;19930;-58
2024/03/20 03:02:06;;;;;;;;;;;;;;;24.23;35.00;101342.38;4100895;29;19926;-59
2024/03/20 03:04:07;;;;;;;;;;;;;;;24.24;34.71;101344.06;4100987;29;19928;-59
2024/03/20 03:06:08;;;;;;;;;;;;;;;24.24;34.84;101336.00;4100633;29;19922;-59
2024/03/20 03:08:09;;;;;;;;;;;;;;;24.23;35.09;101332.47;4100697;29;20013;-59
2024/03/20 03:10:13;;;;;;;;;;;;;;;24.22;34.89;101324.53;4100892;29;19944;-59
2024/03/20 03:12:14;;;;;;;;;;;;;;;24.20;35.00;101319.28;4100693;29;20022;-59
2024/03/20 03:14:16;;;;;;;;;;;;;;;24.19;34.88;101314.03;4100566;29;19922;-59
2024/03/20 03:16:16;;;;;;;;;;;;;;;24.18;35.20;101323.94;4100706;29;19926;-59
2024/03/20 03:18:17;;;;;;;;;;;;;;;24.19;34.94;101322.09;4100587;29;20438;-59
2024/03/20 03:20:19;;;;;;;;;;;;;;;24.18;34.86;101318.56;4100589;29;19922;-59
2024/03/20 03:22:21;;;;;;;;;;;;;;;24.16;35.25;101323.22;4100580;29;20429;-59
2024/03/20 03:24:21;;;;;;;;;;;;;;;24.16;35.03;101323.22;4100464;29;19928;-59
2024/03/20 03:26:22;;;;;;;;;;;;;;;24.14;35.12;101311.72;4100482;29;20274;-59
2024/03/20 03:28:23;;;;;;;;;;;;;;;24.14;35.19;101321.66;4100204;29;19970;-59
2024/03/20 03:30:24;;;;;;;;;;;;;;;24.15;35.14;101321.50;4104689;28;20015;-59
2024/03/20 03:32:25;;;;;;;;;;;;;;;24.18;35.15;101310.50;4121319;28;19922;-59
2024/03/20 03:34:26;;;;;;;;;;;;;;;24.18;35.21;101313.19;4099980;29;19932;-59
2024/03/20 03:36:26;;;;;;;;;;;;;;;24.19;35.15;101309.53;4100506;29;19932;-58
2024/03/20 03:38:27;;;;;;;;;;;;;;;24.17;35.03;101310.63;4100498;29;20457;-60
2024/03/20 03:40:28;;;;;;;;;;;;;;;24.15;34.94;101305.38;4100531;29;19922;-59
2024/03/20 03:42:29;;;;;;;;;;;;;;;24.14;35.20;101308.22;4100150;29;20397;-59
2024/03/20 03:44:30;;;;;;;;;;;;;;;24.12;35.18;101299.41;4100180;29;19929;-59
2024/03/20 03:46:31;;;;;;;;;;;;;;;24.12;35.13;101297.59;4100249;29;19930;-59
2024/03/20 03:48:32;;;;;;;;;;;;;;;24.11;35.22;101303.06;4099861;29;19923;-59
2024/03/20 03:50:33;;;;;;;;;;;;;;;24.09;35.16;101297.84;4100245;29;20396;-60
2024/03/20 03:52:34;;;;;;;;;;;;;;;24.07;35.27;101294.41;4100200;29;19962;-59
2024/03/20 03:54:35;;;;;;;;;;;;;;;24.11;34.85;101297.69;4100262;29;19923;-59
2024/03/20 03:56:36;;;;;;;;;;;;;;;24.09;34.88;101296.00;4099168;28;19949;-59
2024/03/20 03:58:37;;;;;;;;;;;;;;;24.07;35.27;101292.59;4100225;29;19977;-59
2024/03/20 04:00:38;;;;;;;;;;;;;;;24.07;35.22;101289.91;4084146;29;19923;-59
2024/03/20 04:02:38;;;;;;;;;;;;;;;24.10;34.89;101291.50;4099488;29;19937;-59
2024/03/20 04:04:39;;;;;;;;;;;;;;;24.12;35.09;101294.03;4099918;29;20021;-60
2024/03/20 04:06:41;;;;;;;;;;;;;;;24.12;34.88;101294.91;4099903;29;20361;-60
2024/03/20 04:08:42;;;;;;;;;;;;;;;24.13;34.79;101298.44;4099995;29;19922;-59
2024/03/20 04:10:43;;;;;;;;;;;;;;;24.12;34.77;101297.59;4099645;29;19922;-59
2024/03/20 04:12:44;;;;;;;;;;;;;;;24.09;34.82;101298.69;4099934;29;19973;-59
2024/03/20 04:14:45;;;;;;;;;;;;;;;24.07;35.04;101306.03;4099569;29;20305;-59
2024/03/20 04:16:46;;;;;;;;;;;;;;;24.06;35.22;101304.31;4099612;29;19926;-59
2024/03/20 04:18:47;;;;;;;;;;;;;;;24.07;35.27;101308.72;4099561;29;19969;-59
2024/03/20 04:20:47;;;;;;;;;;;;;;;24.07;35.27;101310.53;4099734;29;19985;-59
2024/03/20 04:22:48;;;;;;;;;;;;;;;24.05;35.27;101301.78;4099601;29;20302;-58
2024/03/20 04:24:49;;;;;;;;;;;;;;;24.03;34.96;101306.41;4099941;29;19922;-58
2024/03/20 04:26:50;;;;;;;;;;;;;;;24.02;35.21;101307.41;4099923;29;19930;-59
2024/03/20 04:28:51;;;;;;;;;;;;;;;24.01;35.21;101298.50;4083772;29;20329;-59
2024/03/20 04:30:51;;;;;;;;;;;;;;;24.02;35.01;101296.66;4107442;28;19958;-59
2024/03/20 04:32:52;;;;;;;;;;;;;;;24.03;35.04;101304.56;4100646;28;20413;-58
2024/03/20 04:34:53;;;;;;;;;;;;;;;24.07;35.00;101310.53;4099379;29;19929;-59
2024/03/20 04:36:54;;;;;;;;;;;;;;;24.09;34.85;101311.28;4099466;29;19927;-58
2024/03/20 04:38:55;;;;;;;;;;;;;;;24.08;35.03;101304.19;4099558;29;20021;-58
2024/03/20 04:40:55;;;;;;;;;;;;;;;24.07;34.98;101305.16;4099459;29;19930;-58
2024/03/20 04:42:56;;;;;;;;;;;;;;;24.04;35.10;101303.59;4099529;29;20013;-58
2024/03/20 04:44:57;;;;;;;;;;;;;;;24.05;35.10;101308.00;4099322;29;20462;-58
2024/03/20 04:46:58;;;;;;;;;;;;;;;24.03;35.17;101309.09;4099231;29;19965;-58
2024/03/20 04:48:58;;;;;;;;;;;;;;;24.00;35.00;101309.34;4099299;29;20021;-58
2024/03/20 04:50:59;;;;;;;;;;;;;;;24.00;34.90;101312.03;4098973;29;19922;-59
2024/03/20 04:53:00;;;;;;;;;;;;;;;24.00;34.94;101312.03;4099140;29;20307;-59
2024/03/20 04:55:03;;;;;;;;;;;;;;;23.99;34.95;101313.88;4099112;29;19926;-59
2024/03/20 04:57:04;;;;;;;;;;;;;;;23.97;35.09;101307.78;4099240;29;20030;-59
2024/03/20 04:59:06;;;;;;;;;;;;;;;23.98;35.50;101316.72;4099359;29;19923;-59
2024/03/20 05:01:09;;;;;;;;;;;;;;;23.96;35.00;101314.13;4098689;29;19922;-59
2024/03/20 05:03:10;;;;;;;;;;;;;;;23.99;35.05;101311.19;4099182;29;19923;-58
2024/03/20 05:05:10;;;;;;;;;;;;;;;23.99;35.14;101316.56;4099171;29;20013;-60
2024/03/20 05:07:11;;;;;;;;;;;;;;;24.01;34.86;101311.06;4098873;29;19922;-59
2024/03/20 05:09:12;;;;;;;;;;;;;;;24.01;35.17;101313.75;4099097;28;19926;-59
2024/03/20 05:11:13;;;;;;;;;;;;;;;24.01;34.87;101313.75;4098850;29;19929;-58
2024/03/20 05:13:14;;;;;;;;;;;;;;;24.00;35.02;101306.66;4098843;29;20401;-59
2024/03/20 05:15:15;;;;;;;;;;;;;;;23.98;34.82;101314.00;4098755;29;19922;-59
2024/03/20 05:17:16;;;;;;;;;;;;;;;23.97;35.21;101317.69;4098744;29;19945;-59
2024/03/20 05:19:16;;;;;;;;;;;;;;;23.95;35.21;101315.13;4082981;29;19937;-58
2024/03/20 05:21:17;;;;;;;;;;;;;;;23.95;34.97;101315.13;4098796;29;19922;-59
2024/03/20 05:23:18;;;;;;;;;;;;;;;23.94;35.34;101316.09;4099021;29;19922;-58
2024/03/20 05:25:19;;;;;;;;;;;;;;;23.92;34.92;101309.97;4098688;29;19930;-58
2024/03/20 05:27:19;;;;;;;;;;;;;;;23.91;35.01;101308.25;4098705;29;19945;-58
2024/03/20 05:29:20;;;;;;;;;;;;;;;23.90;35.27;101310.09;4098864;29;19926;-58
2024/03/20 05:31:25;;;;;;;;;;;;;;;23.91;35.28;101311.81;4107678;28;19959;-58
2024/03/20 05:33:26;;;;;;;;;;;;;;;23.92;34.97;101307.28;4098837;29;20340;-58
2024/03/20 05:35:26;;;;;;;;;;;;;;;23.93;35.17;101307.19;4098525;29;19982;-59
2024/03/20 05:37:27;;;;;;;;;;;;;;;23.95;35.18;101312.44;4098564;29;19926;-59
2024/03/20 05:39:28;;;;;;;;;;;;;;;23.96;35.30;101307.91;4098761;29;19947;-58
2024/03/20 05:41:29;;;;;;;;;;;;;;;23.94;35.00;101313.41;4098627;29;20398;-58
2024/03/20 05:43:30;;;;;;;;;;;;;;;23.93;34.95;101309.84;4082716;29;19923;-58
2024/03/20 05:45:31;;;;;;;;;;;;;;;23.92;35.21;101309.97;4098292;29;19977;-58
2024/03/20 05:47:32;;;;;;;;;;;;;;;23.92;34.93;101309.97;4098434;29;19922;-58
2024/03/20 05:49:33;;;;;;;;;;;;;;;23.90;35.23;101315.47;4098708;29;19977;-59
2024/03/20 05:51:33;;;;;;;;;;;;;;;23.90;35.18;101322.66;4098457;29;20054;-58
2024/03/20 05:53:34;;;;;;;;;;;;;;;23.88;34.94;101317.41;4098333;29;19926;-58
2024/03/20 05:55:35;;;;;;;;;;;;;;;23.88;35.27;101314.75;4098434;29;19923;-58
2024/03/20 05:57:36;;;;;;;;;;;;;;;23.87;35.18;101320.25;4098505;29;20100;-60
2024/03/20 05:59:37;;;;;;;;;;;;;;;23.86;34.93;101316.69;4097985;29;20413;-59
2024/03/20 06:01:38;;;;;;;;;;;;;;;23.85;35.19;101323.06;4098466;29;19923;-59
2024/03/20 06:03:39;;;;;;;;;;;;;;;23.88;34.92;101325.47;4098356;29;19922;-59
2024/03/20 06:05:40;;;;;;;;;;;;;;;23.89;34.90;101320.94;4098181;29;19922;-58
2024/03/20 06:07:41;;;;;;;;;;;;;;;23.90;35.08;101317.28;4098667;29;19928;-58
2024/03/20 06:09:41;;;;;;;;;;;;;;;23.91;35.17;101324.38;4098267;29;20401;-58
2024/03/20 06:11:42;;;;;;;;;;;;;;;23.90;34.89;101325.34;4098310;29;20360;-58
2024/03/20 06:13:45;;;;;;;;;;;;;;;23.88;34.93;101320.09;4113919;28;19922;-58
2024/03/20 06:15:46;;;;;;;;;;;;;;;23.88;34.98;101325.47;4098144;29;20301;-58
2024/03/20 06:17:47;;;;;;;;;;;;;;;23.87;34.91;101329.16;4098313;29;19927;-58
2024/03/20 06:19:50;;;;;;;;;;;;;;;23.87;35.12;101326.47;4099769;28;19958;-59
2024/03/20 06:21:51;;;;;;;;;;;;;;;23.86;35.06;101322.06;4103330;29;19929;-59
2024/03/20 06:23:52;;;;;;;;;;;;;;;23.83;35.32;101322.34;4103660;29;19922;-58
2024/03/20 06:25:53;;;;;;;;;;;;;;;23.83;35.02;101319.66;4103410;29;20017;-58
2024/03/20 06:27:53;;;;;;;;;;;;;;;23.83;35.00;101321.47;4103454;29;19967;-59
2024/03/20 06:29:58;;;;;;;;;;;;;;;23.82;35.12;101325.16;4103845;28;19932;-59
2024/03/20 06:32:00;;;;;;;;;;;;;;;23.82;35.25;101319.78;4111878;28;19922;-59
2024/03/20 06:34:01;;;;;;;;;;;;;;;23.81;35.02;101318.91;4103390;28;19930;-58
2024/03/20 06:36:02;;;;;;;;;;;;;;;23.84;34.86;101325.84;4103284;29;20012;-58
2024/03/20 06:38:07;;;;;;;;;;;;;;;23.85;35.29;101325.75;4087459;29;19923;-58
2024/03/20 06:40:10;;;;;;;;;;;;;;;23.86;34.86;101327.44;4103312;29;19923;-58
2024/03/20 06:42:20;;;;;;;;;;;;;;;23.85;35.03;101331.13;4103138;28;19926;-58
2024/03/20 06:44:21;;;;;;;;;;;;;;;23.85;35.05;101333.81;4103530;29;19922;-58
2024/03/20 06:46:23;;;;;;;;;;;;;;;23.86;34.93;101338.19;4103484;29;20370;-59
2024/03/20 06:48:27;;;;;;;;;;;;;;;23.85;35.08;101339.19;4103189;28;19922;-58
2024/03/20 06:50:28;;;;;;;;;;;;;;;23.86;35.26;101340.03;4103260;28;20047;-58
2024/03/20 06:52:38;;;;;;;;;;;;;;;23.66;35.14;101312.09;4103287;29;19922;-58
2024/03/20 06:54:43;;;;;;;;;;;;;;;23.84;34.92;101334.78;4103179;28;19929;-58
2024/03/20 06:56:52;;;;;;;;;;;;;;;23.82;35.18;101341.28;4102843;29;19971;-58
2024/03/20 06:58:53;;;;;;;;;;;;;;;23.81;35.21;101345.78;4103333;29;19948;-58
2024/03/20 07:00:54;;;;;;;;;;;;;;;23.80;35.24;101346.75;4103068;28;19961;-60
2024/03/20 07:02:56;;;;;;;;;;;;;;;23.81;35.09;101358.34;4103251;28;19922;-58
2024/03/20 07:04:57;;;;;;;;;;;;;;;23.81;35.03;101355.69;4103261;28;20349;-58
2024/03/20 07:06:58;;;;;;;;;;;;;;;23.83;35.21;101356.38;4103421;28;20064;-58
2024/03/20 07:08:59;;;;;;;;;;;;;;;23.85;34.80;101360.66;4103229;28;19923;-60
2024/03/20 07:11:04;;;;;;;;;;;;;;;23.85;34.85;101355.31;4103083;29;19923;-59
2024/03/20 07:13:05;;;;;;;;;;;;;;;23.87;34.98;101356.00;4103242;29;19923;-58
2024/03/20 07:15:07;;;;;;;;;;;;;;;23.86;35.04;101350.78;4102935;29;20374;-59
2024/03/20 07:17:08;;;;;;;;;;;;;;;23.86;34.80;101351.59;4103308;28;19922;-59
2024/03/20 07:19:09;;;;;;;;;;;;;;;23.86;35.22;101342.72;4103005;28;19929;-59
2024/03/20 07:21:10;;;;;;;;;;;;;;;23.85;35.08;101352.63;4103061;29;19926;-60
2024/03/20 07:23:11;;;;;;;;;;;;;;;23.85;34.89;101351.75;4102979;28;20460;-59
2024/03/20 07:25:11;;;;;;;;;;;;;;;23.85;34.97;101351.75;4103119;29;20017;-59
2024/03/20 07:27:12;;;;;;;;;;;;;;;23.85;34.81;101349.94;4102771;29;19930;-57
2024/03/20 07:29:13;;;;;;;;;;;;;;;23.85;35.13;101357.13;4103008;28;20394;-59
2024/03/20 07:31:14;;;;;;;;;;;;;;;23.85;34.88;101358.00;4110797;28;19922;-59
2024/03/20 07:33:15;;;;;;;;;;;;;;;23.86;35.16;101356.97;4100041;29;19928;-58
2024/03/20 07:35:29;;;;;;;;;;;;;;;23.86;35.09;101356.97;4100229;29;19977;-58
2024/03/20 07:37:30;;;;;;;;;;;;;;;23.88;34.76;101348.81;4100531;29;19996;-58
2024/03/20 07:39:34;;;;;;;;;;;;;;;23.92;35.05;101344.88;4100372;29;19922;-57
2024/03/20 07:41:35;;;;;;;;;;;;;;;23.93;34.95;101352.84;4100156;29;20406;-57
2024/03/20 07:43:37;;;;;;;;;;;;;;;23.93;34.78;101355.53;4100405;29;19922;-57
2024/03/20 07:45:38;;;;;;;;;;;;;;;23.93;34.54;101358.22;4100205;29;19973;-57
2024/03/20 07:47:39;;;;;;;;;;;;;;;23.92;35.08;101353.81;4100469;29;19965;-58
2024/03/20 07:49:40;;;;;;;;;;;;;;;23.91;34.81;101349.41;4100286;29;19926;-59
2024/03/20 07:51:41;;;;;;;;;;;;;;;23.91;34.95;101351.22;4099889;29;19929;-58
2024/03/20 07:53:44;;;;;;;;;;;;;;;23.90;34.71;101352.22;4100346;29;19984;-59
2024/03/20 07:55:45;;;;;;;;;;;;;;;23.91;34.74;101348.56;4099867;29;19922;-58
2024/03/20 07:57:46;;;;;;;;;;;;;;;23.92;35.02;101358.31;4100068;29;19929;-58
2024/03/20 07:59:47;;;;;;;;;;;;;;;23.89;34.90;101356.75;4099905;29;19926;-58
2024/03/20 08:01:48;;;;;;;;;;;;;;;23.90;34.75;101358.47;4084263;29;20009;-58
2024/03/20 08:03:50;;;;;;;;;;;;;;;23.91;34.97;101357.47;4099888;29;19962;-60
2024/03/20 08:05:51;;;;;;;;;;;;;;;23.91;34.81;101362.84;4100008;29;20467;-58
2024/03/20 08:07:52;;;;;;;;;;;;;;;23.96;34.77;101362.47;4099932;29;19922;-58
2024/03/20 08:09:54;;;;;;;;;;;;;;;23.98;35.01;101363.22;4099520;29;19927;-58
2024/03/20 08:11:55;;;;;;;;;;;;;;;24.00;34.77;101366.63;4099849;29;19928;-59
2024/03/20 08:13:55;;;;;;;;;;;;;;;24.03;34.92;101369.06;4099598;29;19922;-60
2024/03/20 08:15:56;;;;;;;;;;;;;;;24.04;34.61;101368.09;4099992;29;19989;-57
2024/03/20 08:17:57;;;;;;;;;;;;;;;24.03;34.90;101368.22;4099923;29;19948;-59
2024/03/20 08:19:58;;;;;;;;;;;;;;;24.02;35.01;101370.06;4099792;29;20001;-58
2024/03/20 08:21:59;;;;;;;;;;;;;;;24.00;34.70;101368.47;4099699;29;19981;-58
2024/03/20 08:24:00;;;;;;;;;;;;;;;23.99;34.80;101373.00;4099554;29;19950;-58
2024/03/20 08:26:01;;;;;;;;;;;;;;;24.00;35.11;101373.81;4099841;29;20298;-58
2024/03/20 08:28:03;;;;;;;;;;;;;;;23.98;34.68;101373.97;4099691;29;19958;-59
2024/03/20 08:30:05;;;;;;;;;;;;;;;23.98;34.78;101373.13;4101180;28;19922;-59
2024/03/20 08:32:05;;;;;;;;;;;;;;;23.99;34.71;101372.16;4107165;28;19932;-57
2024/03/20 08:34:06;;;;;;;;;;;;;;;24.01;34.83;101372.84;4099546;29;19922;-57
2024/03/20 08:36:10;;;;;;;;;;;;;;;24.01;34.85;101364.78;4099476;29;19930;-58
2024/03/20 08:38:11;;;;;;;;;;;;;;;24.00;34.90;101363.09;4099105;29;19922;-57
2024/03/20 08:40:13;;;;;;;;;;;;;;;24.02;34.88;101366.50;4099348;29;19969;-58
2024/03/20 08:42:13;;;;;;;;;;;;;;;24.03;34.98;101362.84;4099328;29;19922;-58
2024/03/20 08:44:14;;;;;;;;;;;;;;;24.03;35.08;101368.22;4099135;28;19926;-58
2024/03/20 08:46:15;;;;;;;;;;;;;;;24.02;35.15;101367.38;4099689;29;19928;-58
2024/03/20 08:48:16;;;;;;;;;;;;;;;24.04;34.76;101369.94;4099441;29;19923;-59
2024/03/20 08:50:19;;;;;;;;;;;;;;;24.03;34.68;101363.69;4099101;29;19926;-58
2024/03/20 08:52:21;;;;;;;;;;;;;;;24.05;35.00;101363.59;4099366;29;19928;-59
2024/03/20 08:54:22;;;;;;;;;;;;;;;24.05;35.07;101364.41;4098760;29;19932;-58
2024/03/20 08:56:23;;;;;;;;;;;;;;;24.05;35.14;101366.25;4099125;29;19931;-59
2024/03/20 08:58:24;;;;;;;;;;;;;;;24.04;34.57;101362.72;4099096;29;19922;-58
2024/03/20 09:00:26;;;;;;;;;;;;;;;24.05;35.11;101356.34;4099326;29;19923;-58
2024/03/20 09:02:27;;;;;;;;;;;;;;;24.07;35.07;101361.59;4099101;29;19926;-58
2024/03/20 09:04:27;;;;;;;;;;;;;;;24.06;34.75;101359.91;4083212;29;20351;-59
2024/03/20 09:06:29;;;;;;;;;;;;;;;24.05;35.06;101360.88;4099282;29;19977;-58
2024/03/20 09:08:30;;;;;;;;;;;;;;;24.05;34.93;101359.03;4098868;29;19926;-58
2024/03/20 09:10:31;;;;;;;;;;;;;;;24.06;35.05;101357.22;4099235;29;20299;-58
2024/03/20 09:12:32;;;;;;;;;;;;;;;24.08;34.91;101366.88;4098872;29;19978;-59
2024/03/20 09:14:33;;;;;;;;;;;;;;;24.09;34.98;101363.16;4098895;29;19926;-59
2024/03/20 09:16:34;;;;;;;;;;;;;;;24.09;34.92;101363.16;4099071;29;20332;-58
2024/03/20 09:18:35;;;;;;;;;;;;;;;24.11;34.97;101368.44;4098782;29;19954;-59
2024/03/20 09:20:40;;;;;;;;;;;;;;;24.12;34.93;101375.53;4098959;29;19922;-58
2024/03/20 09:22:45;;;;;;;;;;;;;;;24.12;34.87;101366.59;4098321;29;19928;-58
2024/03/20 09:24:46;;;;;;;;;;;;;;;24.13;34.52;101366.47;4098806;29;19949;-57
2024/03/20 09:26:47;;;;;;;;;;;;;;;24.11;34.97;101364.88;4098626;29;20402;-57
2024/03/20 09:28:48;;;;;;;;;;;;;;;24.11;34.63;101362.19;4098523;29;19922;-58
2024/03/20 09:30:49;;;;;;;;;;;;;;;24.09;34.77;101363.16;4105976;28;19952;-58
2024/03/20 09:32:50;;;;;;;;;;;;;;;24.11;34.87;101370.25;4083710;29;19929;-58
2024/03/20 09:34:51;;;;;;;;;;;;;;;24.12;34.76;101366.59;4098398;29;19929;-58
2024/03/20 09:36:55;;;;;;;;;;;;;;;24.11;34.66;101373.81;4082326;29;19927;-58
2024/03/20 09:38:56;;;;;;;;;;;;;;;24.11;34.94;101375.63;4082567;29;19926;-59
2024/03/20 09:40:57;;;;;;;;;;;;;;;24.12;34.62;101369.28;4067017;29;20260;-59
2024/03/20 09:42:58;;;;;;;;;;;;;;;24.12;35.14;101369.28;4082748;29;19923;-58
2024/03/20 09:45:00;;;;;;;;;;;;;;;24.06;35.36;101365.28;4082648;29;19958;-58
2024/03/20 09:47:01;;;;;;;;;;;;;;;24.05;35.65;101363.59;4082775;29;19929;-58
2024/03/20 09:49:02;;;;;;;;;;;;;;;24.03;35.45;101358.31;4093208;29;20467;-58
2024/03/20 09:51:03;;;;;;;;;;;;;;;24.02;35.66;101359.31;4097953;29;20012;-59
2024/03/20 09:53:05;;;;;;;;;;;;;;;24.02;35.64;101359.31;4098260;29;19922;-59
2024/03/20 09:55:07;;;;;;;;;;;;;;;24.01;35.52;101359.41;4097590;28;19930;-59
2024/03/20 09:57:13;;;;;;;;;;;;;;;23.97;35.52;101358.81;4098390;29;19926;-59
2024/03/20 09:59:13;;;;;;;;;;;;;;;24.01;35.15;101359.41;4097443;29;19923;-60
2024/03/20 10:01:16;;;;;;;;;;;;;;;23.99;35.20;101356.03;4098269;29;19973;-59
2024/03/20 10:03:19;;;;;;;;;;;;;;;23.95;35.53;101362.63;4098448;29;20108;-59
2024/03/20 10:05:19;;;;;;;;;;;;;;;23.89;35.32;101356.75;4097675;29;19922;-59
2024/03/20 10:07:20;;;;;;;;;;;;;;;23.89;35.60;101354.06;4098151;29;19965;-59
2024/03/20 10:09:26;;;;;;;;;;;;;;;23.88;35.49;101351.50;4097805;29;19961;-60
2024/03/20 10:11:26;;;;;;;;;;;;;;;23.88;35.37;101348.81;4098930;28;20377;-60
2024/03/20 10:13:27;;;;;;;;;;;;;;;23.90;35.30;101344.16;4098116;29;19985;-59
2024/03/20 10:15:28;;;;;;;;;;;;;;;23.92;34.95;101347.56;4098061;29;19926;-59
2024/03/20 10:17:29;;;;;;;;;;;;;;;23.94;34.98;101342.97;4097933;29;19965;-59
2024/03/20 10:19:30;;;;;;;;;;;;;;;23.92;35.15;101348.44;4098116;29;19922;-60
2024/03/20 10:21:33;;;;;;;;;;;;;;;23.93;35.27;101343.94;4097916;29;20337;-59